• Join FlightAware (Why Join?)
  • Login
  • US Flag 
06:37PM EDT


 

Airport Tracker/Info


-or-


 

Live Flight TrackerFlight Track Log ✈ SWA890 ✈ 12-Oct-2013 ✈ KBWI - KFLL

Flight Track Log - Related Links

Times and Time Zones

All times are in EDT time to prevent confusion due to time zone crossing. See the SWA890 flight status page for this flight to view local times or setup timezone preferences in your user account.

Time Position Orientation Groundspeed Altitude Reporting Facility
EDT Latitude Longitude Course Direction KTS MPH feet Rate Location/Type
08:06PM 39.0667 -76.6333 180° South 244 281 4,600  Level Potomac TRACON
08:08PM 38.9217 -76.5922 168° South 277 319 10,800 3,180 Climbing Washington Center
08:09PM 38.8300 -76.5989 183° South 312 359 13,800 3,000 Climbing Washington Center
08:10PM 38.7317 -76.6428 199° South 335 386 16,700 2,640 Climbing Washington Center
08:11PM 38.6289 -76.6944 201° Southwest 372 428 19,000 1,680 Climbing Washington Center
08:12PM 38.5244 -76.7222 192° South 390 449 20,200 1,740 Climbing Washington Center
08:13PM 38.4078 -76.7072 174° South 390 449 22,600 2,160 Climbing Washington Center
08:14PM 38.3142 -76.6925 173° South 404 465 24,600 2,160 Climbing Washington Center
08:15PM 38.1850 -76.6747 174° South 424 488 26,900 2,220 Climbing Washington Center
08:16PM 38.0414 -76.6569 174° South 449 517 29,000 1,800 Climbing Washington Center
08:17PM 37.9142 -76.6394 174° South 461 531 30,600 1,680 Climbing Washington Center
08:18PM 37.7808 -76.6217 174° South 472 543 32,400 1,980 Climbing Washington Center
08:19PM 37.6517 -76.6042 174° South 478 550 34,600 1,800 Climbing Washington Center
08:20PM 37.5372 -76.5897 174° South 478 550 36,000 1,140 Climbing Washington Center
08:21PM 37.4078 -76.5983 183° South 473 544 37,000 1,320 Climbing Washington Center
08:22PM 37.2822 -76.6489 198° South 473 544 38,800 1,500 Climbing Washington Center
08:23PM 37.1628 -76.6942 197° South 468 539 40,000 600 Climbing Washington Center
08:24PM 37.0414 -76.7419 197° South 463 533 40,000  Level Washington Center
08:25PM 36.9200 -76.7869 197° South 463 533 40,000  Level Washington Center
08:26PM 36.7986 -76.8317 196° South 463 533 40,000  Level Washington Center
08:27PM 36.6769 -76.8764 196° South 463 533 40,000  Level Washington Center
08:28PM 36.5597 -76.9186 196° South 463 533 40,000  Level Washington Center
08:29PM 36.4278 -76.9706 198° South 457 526 40,000  Level Washington Center
08:30PM 36.3042 -77.0147 196° South 457 526 40,000  Level Washington Center
08:31PM 36.1825 -77.0589 196° South 462 532 40,000  Level Washington Center
08:32PM 36.0631 -77.0978 195° South 462 532 40,000  Level Washington Center
08:33PM 35.9561 -77.1394 198° South 462 532 40,000  Level Washington Center
08:34PM 35.8367 -77.1806 196° South 457 526 40,000  Level Washington Center
08:35PM 35.7150 -77.2242 196° South 457 526 40,000  Level Washington Center
08:36PM 35.5978 -77.2653 196° South 457 526 40,000  Level Washington Center
08:37PM 35.4761 -77.3086 196° South 457 526 40,000  Level Washington Center
08:38PM 35.3544 -77.3492 195° South 462 532 40,000  Level Washington Center
08:39PM 35.2350 -77.3925 197° South 462 532 40,000  Level Washington Center
08:40PM 35.1175 -77.4331 196° South 457 526 40,000  Level Washington Center
08:41PM 34.9958 -77.4733 195° South 457 526 40,000  Level Washington Center
08:42PM 34.8783 -77.5186 198° South 457 526 40,000  Level Washington Center
08:43PM 34.7503 -77.5636 196° South 452 520 40,000  Level Washington Center
08:44PM 34.6306 -77.6089 197° South 447 514 40,000  Level Washington Center
08:45PM 34.5108 -77.6511 196° South 447 514 40,000  Level Washington Center
08:46PM 34.3892 -77.6908 195° South 447 514 40,000  Level Washington Center
08:47PM 34.2675 -77.7306 195° South 447 514 40,000  Level Washington Center
08:49PM 34.0569 -77.8019 196° South 456 525 40,000  Level Jacksonville Center
08:50PM 33.9336 -77.8442 196° South 456 525 40,000  Level Jacksonville Center
08:51PM 33.8142 -77.8861 196° South 456 525 40,000  Level Jacksonville Center
08:52PM 33.6928 -77.9278 196° South 456 525 40,000  Level Jacksonville Center
08:53PM 33.5692 -77.9672 195° South 456 525 40,000  Level Jacksonville Center
08:54PM 33.4478 -78.0089 196° South 456 525 40,000  Level Jacksonville Center
08:55PM 33.3283 -78.0503 196° South 450 518 40,000  Level Jacksonville Center
08:56PM 33.2047 -78.0942 197° South 455 524 40,000  Level Jacksonville Center
08:57PM 33.0811 -78.1331 195° South 455 524 40,000  Level Jacksonville Center
08:58PM 32.9553 -78.1719 195° South 455 524 40,000  Level Jacksonville Center
08:59PM 32.8336 -78.2153 197° South 460 529 40,000  Level Jacksonville Center
09:00PM 32.7119 -78.2561 196° South 460 529 40,000  Level Jacksonville Center
09:01PM 32.5883 -78.2969 196° South 460 529 40,000  Level Jacksonville Center
09:02PM 32.4644 -78.3353 195° South 460 529 40,000  Level Jacksonville Center
09:03PM 32.3408 -78.3808 197° South 460 529 40,000  Level Jacksonville Center
09:04PM 32.2211 -78.4186 195° South 460 529 40,000  Level Jacksonville Center
09:05PM 32.0953 -78.4592 195° South 460 529 40,000  Level Jacksonville Center
09:06PM 31.9733 -78.4992 196° South 460 529 40,000  Level Jacksonville Center
09:07PM 31.8414 -78.5422 195° South 453 521 40,000  Level Jacksonville Center
09:08PM 31.7194 -78.5797 195° South 453 521 40,000  Level Jacksonville Center
09:09PM 31.5997 -78.6194 196° South 450 518 40,000  Level Jacksonville Center
09:10PM 31.4758 -78.6592 195° South 450 518 40,000  Level Jacksonville Center
09:11PM 31.3542 -78.7011 196° South 457 526 40,000  Level Jacksonville Center
09:12PM 31.2300 -78.7408 195° South 456 525 40,000  Level Jacksonville Center
09:13PM 31.1061 -78.7825 196° South 461 531 40,000  Level Jacksonville Center
09:14PM 30.9861 -78.8169 194° South 470 541 40,000  Level Jacksonville Center
09:15PM 30.8561 -78.8586 195° South 470 541 40,000  Level Jacksonville Center
09:17PM 30.5819 -78.9439 195° South 474 545 40,000  Level Miami Center
09:18PM 30.4647 -78.9825 196° South 468 539 40,000  Level Miami Center
09:19PM 30.3369 -79.0136 192° South 462 532 40,000  Level Miami Center
09:20PM 30.2053 -79.0350 188° South 467 537 40,000  Level Miami Center
09:21PM 30.0778 -79.0589 189° South 472 543 40,000  Level Miami Center
09:22PM 29.9397 -79.0919 192° South 464 534 40,000  Level Miami Center
09:23PM 29.8122 -79.1131 188° South 464 534 40,000  Level Miami Center
09:24PM 29.6867 -79.1392 190° South 464 534 40,000  Level Miami Center
09:25PM 29.5592 -79.1606 188° South 470 541 40,000  Level Miami Center
09:26PM 29.4336 -79.1886 191° South 470 541 40,000  Level Miami Center
09:27PM 29.2978 -79.2050 186° South 470 541 40,000  Level Miami Center
09:28PM 29.1742 -79.2331 191° South 475 547 40,000  Level Miami Center
09:29PM 29.0403 -79.2517 187° South 470 541 40,000  Level Miami Center
09:30PM 28.9125 -79.2772 190° South 470 541 40,000  Level Miami Center
09:31PM 28.7975 -79.2986 189° South 470 541 40,000  Level Miami Center
09:32PM 28.6656 -79.3192 188° South 470 541 40,000  Level Miami Center
09:33PM 28.5358 -79.3447 190° South 470 541 40,000  Level Miami Center
09:34PM 28.4081 -79.3678 189° South 470 541 40,000 -900 Level Miami Center
09:35PM 28.2783 -79.3886 188° South 470 541 38,300 -2,280 Descending Miami Center
09:36PM 28.1486 -79.4139 190° South 470 541 35,500 -2,400 Descending Miami Center
09:37PM 28.0208 -79.4344 188° South 470 541 33,600 -1,440 Descending Miami Center
09:38PM 27.8908 -79.4575 189° South 470 541 32,700 -960 Descending Miami Center
09:39PM 27.7464 -79.4825 189° South 481 554 31,700 -1,260 Descending Miami Center
09:40PM 27.6144 -79.5050 189° South 489 563 30,200 -2,100 Descending Miami Center
09:41PM 27.4825 -79.5303 190° South 483 556 27,500 -2,640 Descending Miami Center
09:42PM 27.3694 -79.5486 188° South 469 540 25,000 -2,400 Descending Miami Center
09:43PM 27.2458 -79.5692 188° South 463 533 22,800 -2,400 Descending Miami Center
09:44PM 27.1181 -79.5917 189° South 437 503 20,300 -2,280 Descending Miami Center
09:45PM 27.0047 -79.6100 188° South 423 487 18,300 -1,980 Descending Miami Center
09:46PM 26.8958 -79.6286 189° South 406 467 16,300 -2,160 Descending Miami Center
09:47PM 26.7950 -79.6656 198° South 389 448 14,000 -2,100 Descending Miami Center
09:48PM 26.7022 -79.7078 202° Southwest 378 435 12,200 -1,800 Descending Miami Center
09:49PM 26.6222 -79.7453 203° Southwest 355 409 10,500 -1,560 Descending Miami Center
09:49PM 26.5842 -79.7653 205° Southwest 333 383 10,200 -840 Descending Miami Center
09:50PM 26.5356 -79.7872 202° Southwest 330 380 9,700 -900 Descending Miami Center
09:50PM 26.5231 -79.7917 198° South 289 333 9,500 -1,440 Descending Miami Center
09:51PM 26.4492 -79.8269 203° Southwest 288 331 8,100 -840 Descending Miami Center
09:52PM 26.3881 -79.8556 203° Southwest 293 337 8,000 -120 Descending Miami Center
09:52PM 26.3775 -79.8644 217° Southwest 273 314 8,000  Level Miami Center
09:53PM 26.3369 -79.9028 220° Southwest 279 321 8,000  Level Miami Center
09:53PM 26.3178 -79.9208 220° Southwest 274 315 8,000  Level Miami Center
09:54PM 26.2708 -79.9661 221° Southwest 279 321 8,000  Level Miami Center
09:54PM 26.2664 -79.9728 233° Southwest 276 318 8,000  Level Miami Center
09:55PM 26.2156 -80.0178 218° Southwest 279 321 8,000  Level Miami Center
09:55PM 26.2089 -80.0269 231° Southwest 273 314 8,000 -120 Level Miami Center
09:56PM 26.1700 -80.0861 234° Southwest 274 315 7,900 -480 Descending Miami Center
09:56PM 26.1633 -80.1067 250° West 277 319 7,500 -1,680 Descending Miami Center
09:57PM 26.1494 -80.1642 255° West 268 308 6,300 -1,560 Descending Miami Center
09:57PM 26.1450 -80.1825 255° West 258 297 6,000 -1,260 Descending Miami Center
09:58PM 26.1497 -80.2428 275° West 255 293 5,100 -1,140 Descending Miami Center
09:58PM 26.1469 -80.2706 264° West 233 268 4,700 -1,380 Descending Miami Center
09:59PM 26.1475 -80.3378 271° West 241 277 3,400 -960 Descending Miami Center
10:00PM 26.1153 -80.3831 232° Southwest 230 265 3,000 -300 Descending Miami Center
10:01PM 26.0761 -80.3542 146° Southeast 189 217 2,900 -420 Descending Miami Center
10:02PM 26.0775 -80.3008 88° East 172 198 2,200 -780 Descending Miami Center
10:03PM 26.0744 -80.2522 94° East 146 168 1,400 -780 Descending Miami Center
10:04PM 26.0753 -80.2131 89° East 135 155 800 -660 Descending Miami Center
10:06PM 26.0667 -80.1500 103° East  Level FlightAware Approximate
10:13PM 26.0726 -80.1527 103° East  Level Estimated